St Mary's Airport
PASM : rendu visible

Aérodrome :











RETROUVEZ-NOUS SUR...

 
LOGIN :

S'inscrire | Disclaimer

   EN    FR    IT 

 









Légende :    VFR   VFR Marginal   IFR   IFR Intensif   IFR Très Intensif
Visi : 
Plafond : 
>= 8 km
>= 3000ft
5 à 8 km
1000 à 3000 ft
1500m à 5 km
500 à 1000 ft
800 à 1500m
200 à 500 ft
< 800m
< 200 ft
Symboles :   Orages  Brouillard  Fortes neiges  Fortes précipitations  Vent > 20 kt






- Altitude de l'aérodrome : 312 ft
- Code IATA : KSM


PASM - St Mary's

DERNIER METAR :
  • 232356Z AUTO 35020G25KT 10SM SCT033 07/M01 A2958 RMK AO2 PK WND 35027/2323 SLP024 T00671011 10072 20022 58009

METARs EXPIRÉS :
  • 232256Z AUTO 36017G27KT 10SM BKN033 07/M01 A2959 RMK AO2 PK WND 35028/2212 SLP027 T00671006
  • 232156Z AUTO 36016G25KT 10SM SCT029 07/M01 A2959 RMK AO2 PK WND 35026/2140 SLP030 T00671011

TAF N/A
FIR PAZA / Amérique du Nord



MET'MAP, la Météo Aéronautique d'un coup d'oeil ! - Copyright ORBIFLY Décembre 2007 - Disclaimer

ORBIFLY MET'MAP TEAM :

Programmation & Développement : Alexandra Zaïnal
Sur une idée originale de : Baudouin d'Aumeries
Assistance à la programmation : Marc-Olivier Méhu
Soutien technique & logistique : Manuel Goepfert

Contact : metmap@orbifly.com




SOURCES & CREDITS :

   NOAA       Earth
Advisory